sensor_id;sensor_type;location;lat;lon;timestamp;P1;durP1;ratioP1;P2;durP2;ratioP2
10059;SDS011;5069;49.306;8.636;2024-02-21T00:01:14;14.57;;;5.70;;
10059;SDS011;5069;49.306;8.636;2024-02-21T00:04:16;11.33;;;5.17;;
10059;SDS011;5069;49.306;8.636;2024-02-21T00:07:18;13.30;;;5.60;;
10059;SDS011;5069;49.306;8.636;2024-02-21T00:10:19;10.13;;;5.20;;
10059;SDS011;5069;49.306;8.636;2024-02-21T00:13:21;13.17;;;5.43;;
10059;SDS011;5069;49.306;8.636;2024-02-21T00:16:22;16.50;;;5.53;;
10059;SDS011;5069;49.306;8.636;2024-02-21T00:19:24;13.27;;;5.53;;
10059;SDS011;5069;49.306;8.636;2024-02-21T00:22:25;12.63;;;4.93;;
10059;SDS011;5069;49.306;8.636;2024-02-21T00:25:30;12.63;;;5.00;;
10059;SDS011;5069;49.306;8.636;2024-02-21T00:28:31;11.70;;;5.10;;
10059;SDS011;5069;49.306;8.636;2024-02-21T00:31:33;10.63;;;5.07;;
10059;SDS011;5069;49.306;8.636;2024-02-21T00:34:35;17.80;;;5.43;;
10059;SDS011;5069;49.306;8.636;2024-02-21T00:37:37;13.17;;;5.53;;
10059;SDS011;5069;49.306;8.636;2024-02-21T00:40:38;15.70;;;5.93;;
10059;SDS011;5069;49.306;8.636;2024-02-21T00:43:40;13.67;;;5.67;;
10059;SDS011;5069;49.306;8.636;2024-02-21T00:46:42;13.40;;;5.30;;
10059;SDS011;5069;49.306;8.636;2024-02-21T00:49:44;12.30;;;5.20;;
10059;SDS011;5069;49.306;8.636;2024-02-21T00:52:46;12.77;;;5.10;;
10059;SDS011;5069;49.306;8.636;2024-02-21T00:55:47;15.00;;;4.83;;
10059;SDS011;5069;49.306;8.636;2024-02-21T00:58:49;14.53;;;5.30;;
10059;SDS011;5069;49.306;8.636;2024-02-21T01:01:50;11.00;;;4.77;;
10059;SDS011;5069;49.306;8.636;2024-02-21T01:04:52;13.67;;;5.20;;
10059;SDS011;5069;49.306;8.636;2024-02-21T01:07:54;11.67;;;4.67;;
10059;SDS011;5069;49.306;8.636;2024-02-21T01:10:56;12.23;;;5.40;;
10059;SDS011;5069;49.306;8.636;2024-02-21T01:13:57;12.13;;;4.90;;
10059;SDS011;5069;49.306;8.636;2024-02-21T01:16:59;9.47;;;4.77;;
10059;SDS011;5069;49.306;8.636;2024-02-21T01:20:00;17.93;;;4.90;;
10059;SDS011;5069;49.306;8.636;2024-02-21T01:23:02;12.53;;;5.30;;
10059;SDS011;5069;49.306;8.636;2024-02-21T01:26:04;16.07;;;5.07;;
10059;SDS011;5069;49.306;8.636;2024-02-21T01:29:06;11.27;;;4.77;;
10059;SDS011;5069;49.306;8.636;2024-02-21T01:32:07;10.53;;;4.90;;
10059;SDS011;5069;49.306;8.636;2024-02-21T01:35:09;13.03;;;4.87;;
10059;SDS011;5069;49.306;8.636;2024-02-21T01:38:12;14.90;;;5.87;;
10059;SDS011;5069;49.306;8.636;2024-02-21T01:41:14;11.67;;;4.93;;
10059;SDS011;5069;49.306;8.636;2024-02-21T01:44:15;10.33;;;4.67;;
10059;SDS011;5069;49.306;8.636;2024-02-21T01:47:17;14.13;;;4.50;;
10059;SDS011;5069;49.306;8.636;2024-02-21T01:50:18;10.20;;;5.20;;
10059;SDS011;5069;49.306;8.636;2024-02-21T01:53:25;12.87;;;5.27;;
10059;SDS011;5069;49.306;8.636;2024-02-21T01:56:32;10.07;;;4.53;;
10059;SDS011;5069;49.306;8.636;2024-02-21T01:59:33;13.70;;;5.30;;
10059;SDS011;5069;49.306;8.636;2024-02-21T02:02:36;14.10;;;5.03;;
10059;SDS011;5069;49.306;8.636;2024-02-21T02:05:39;11.73;;;5.07;;
10059;SDS011;5069;49.306;8.636;2024-02-21T02:08:40;14.23;;;5.10;;
10059;SDS011;5069;49.306;8.636;2024-02-21T02:11:43;13.70;;;5.33;;
10059;SDS011;5069;49.306;8.636;2024-02-21T02:14:44;11.87;;;4.70;;
10059;SDS011;5069;49.306;8.636;2024-02-21T02:17:46;10.07;;;4.57;;
10059;SDS011;5069;49.306;8.636;2024-02-21T02:20:47;14.77;;;5.70;;
10059;SDS011;5069;49.306;8.636;2024-02-21T02:23:50;15.93;;;6.00;;
10059;SDS011;5069;49.306;8.636;2024-02-21T02:26:52;11.90;;;4.60;;
10059;SDS011;5069;49.306;8.636;2024-02-21T02:29:53;11.17;;;4.43;;
10059;SDS011;5069;49.306;8.636;2024-02-21T02:32:55;11.97;;;4.17;;
10059;SDS011;5069;49.306;8.636;2024-02-21T02:35:56;15.93;;;4.83;;
10059;SDS011;5069;49.306;8.636;2024-02-21T02:39:00;11.33;;;4.63;;
10059;SDS011;5069;49.306;8.636;2024-02-21T02:42:01;10.10;;;4.63;;
10059;SDS011;5069;49.306;8.636;2024-02-21T02:45:03;12.13;;;4.70;;
10059;SDS011;5069;49.306;8.636;2024-02-21T02:48:05;11.83;;;4.80;;
10059;SDS011;5069;49.306;8.636;2024-02-21T02:51:07;9.13;;;4.60;;
10059;SDS011;5069;49.306;8.636;2024-02-21T02:54:08;13.97;;;4.67;;
10059;SDS011;5069;49.306;8.636;2024-02-21T02:57:10;12.37;;;4.40;;
10059;SDS011;5069;49.306;8.636;2024-02-21T03:00:12;12.80;;;4.87;;
10059;SDS011;5069;49.306;8.636;2024-02-21T03:03:14;10.97;;;5.07;;
10059;SDS011;5069;49.306;8.636;2024-02-21T03:06:16;21.87;;;10.07;;
10059;SDS011;5069;49.306;8.636;2024-02-21T03:09:17;14.47;;;7.00;;
10059;SDS011;5069;49.306;8.636;2024-02-21T03:12:19;13.57;;;5.00;;
10059;SDS011;5069;49.306;8.636;2024-02-21T03:15:25;10.67;;;4.00;;
10059;SDS011;5069;49.306;8.636;2024-02-21T03:18:27;9.90;;;4.47;;
10059;SDS011;5069;49.306;8.636;2024-02-21T03:21:28;9.43;;;4.47;;
10059;SDS011;5069;49.306;8.636;2024-02-21T03:24:30;8.90;;;4.63;;
10059;SDS011;5069;49.306;8.636;2024-02-21T03:27:32;11.90;;;4.67;;
10059;SDS011;5069;49.306;8.636;2024-02-21T03:30:34;10.00;;;4.83;;
10059;SDS011;5069;49.306;8.636;2024-02-21T03:33:35;9.50;;;4.30;;
10059;SDS011;5069;49.306;8.636;2024-02-21T03:36:37;9.50;;;4.20;;
10059;SDS011;5069;49.306;8.636;2024-02-21T03:39:38;14.73;;;4.93;;
10059;SDS011;5069;49.306;8.636;2024-02-21T03:42:40;11.50;;;5.00;;
10059;SDS011;5069;49.306;8.636;2024-02-21T03:45:41;12.53;;;4.87;;
10059;SDS011;5069;49.306;8.636;2024-02-21T03:48:42;10.77;;;4.80;;
10059;SDS011;5069;49.306;8.636;2024-02-21T03:51:44;13.97;;;4.53;;
10059;SDS011;5069;49.306;8.636;2024-02-21T03:54:45;9.00;;;3.97;;
10059;SDS011;5069;49.306;8.636;2024-02-21T03:57:47;12.13;;;4.30;;
10059;SDS011;5069;49.306;8.636;2024-02-21T04:00:48;9.27;;;3.60;;
10059;SDS011;5069;49.306;8.636;2024-02-21T04:03:50;9.77;;;3.90;;
10059;SDS011;5069;49.306;8.636;2024-02-21T04:06:51;9.23;;;3.60;;
10059;SDS011;5069;49.306;8.636;2024-02-21T04:09:53;11.13;;;4.10;;
10059;SDS011;5069;49.306;8.636;2024-02-21T04:12:54;14.10;;;4.20;;
10059;SDS011;5069;49.306;8.636;2024-02-21T04:15:56;9.07;;;3.80;;
10059;SDS011;5069;49.306;8.636;2024-02-21T04:18:58;12.77;;;4.73;;
10059;SDS011;5069;49.306;8.636;2024-02-21T04:21:59;14.07;;;4.40;;
10059;SDS011;5069;49.306;8.636;2024-02-21T04:25:01;12.20;;;4.37;;
10059;SDS011;5069;49.306;8.636;2024-02-21T04:28:02;10.37;;;3.97;;
10059;SDS011;5069;49.306;8.636;2024-02-21T04:31:04;7.00;;;3.70;;
10059;SDS011;5069;49.306;8.636;2024-02-21T04:34:06;12.37;;;4.17;;
10059;SDS011;5069;49.306;8.636;2024-02-21T04:37:07;10.63;;;3.93;;
10059;SDS011;5069;49.306;8.636;2024-02-21T04:40:09;9.43;;;3.80;;
10059;SDS011;5069;49.306;8.636;2024-02-21T04:43:11;11.97;;;4.10;;
10059;SDS011;5069;49.306;8.636;2024-02-21T04:46:12;12.87;;;4.30;;
10059;SDS011;5069;49.306;8.636;2024-02-21T04:49:14;10.13;;;3.83;;
10059;SDS011;5069;49.306;8.636;2024-02-21T04:52:15;8.67;;;3.97;;
10059;SDS011;5069;49.306;8.636;2024-02-21T04:55:17;9.63;;;4.07;;
10059;SDS011;5069;49.306;8.636;2024-02-21T04:58:19;8.20;;;3.87;;
10059;SDS011;5069;49.306;8.636;2024-02-21T05:01:20;10.27;;;4.70;;
10059;SDS011;5069;49.306;8.636;2024-02-21T05:04:22;10.17;;;4.53;;
10059;SDS011;5069;49.306;8.636;2024-02-21T05:07:23;10.30;;;4.80;;
10059;SDS011;5069;49.306;8.636;2024-02-21T05:10:25;10.37;;;4.63;;
10059;SDS011;5069;49.306;8.636;2024-02-21T05:13:26;11.37;;;5.30;;
10059;SDS011;5069;49.306;8.636;2024-02-21T05:16:28;8.93;;;4.50;;
10059;SDS011;5069;49.306;8.636;2024-02-21T05:19:29;10.37;;;4.40;;
10059;SDS011;5069;49.306;8.636;2024-02-21T05:22:31;9.53;;;4.17;;
10059;SDS011;5069;49.306;8.636;2024-02-21T05:25:32;11.50;;;4.30;;
10059;SDS011;5069;49.306;8.636;2024-02-21T05:28:34;10.23;;;4.20;;
10059;SDS011;5069;49.306;8.636;2024-02-21T05:34:52;9.33;;;4.10;;
10059;SDS011;5069;49.306;8.636;2024-02-21T05:37:54;10.03;;;4.40;;
10059;SDS011;5069;49.306;8.636;2024-02-21T05:40:56;7.37;;;3.77;;
10059;SDS011;5069;49.306;8.636;2024-02-21T05:43:58;8.17;;;3.97;;
10059;SDS011;5069;49.306;8.636;2024-02-21T05:46:59;8.20;;;4.20;;
10059;SDS011;5069;49.306;8.636;2024-02-21T05:50:01;9.63;;;4.10;;
10059;SDS011;5069;49.306;8.636;2024-02-21T05:53:03;9.53;;;5.27;;
10059;SDS011;5069;49.306;8.636;2024-02-21T05:56:04;12.97;;;4.80;;
10059;SDS011;5069;49.306;8.636;2024-02-21T05:59:11;8.47;;;4.23;;
10059;SDS011;5069;49.306;8.636;2024-02-21T06:02:12;7.77;;;4.80;;
10059;SDS011;5069;49.306;8.636;2024-02-21T06:05:14;8.63;;;4.73;;
10059;SDS011;5069;49.306;8.636;2024-02-21T06:08:16;11.23;;;4.90;;
10059;SDS011;5069;49.306;8.636;2024-02-21T06:11:17;9.93;;;4.37;;
10059;SDS011;5069;49.306;8.636;2024-02-21T06:14:19;9.77;;;4.83;;
10059;SDS011;5069;49.306;8.636;2024-02-21T06:17:21;9.40;;;4.80;;
10059;SDS011;5069;49.306;8.636;2024-02-21T06:20:22;8.80;;;5.33;;
10059;SDS011;5069;49.306;8.636;2024-02-21T06:23:24;9.67;;;4.50;;
10059;SDS011;5069;49.306;8.636;2024-02-21T06:26:25;9.13;;;5.00;;
10059;SDS011;5069;49.306;8.636;2024-02-21T06:29:27;10.40;;;5.63;;
10059;SDS011;5069;49.306;8.636;2024-02-21T06:32:29;9.03;;;4.93;;
10059;SDS011;5069;49.306;8.636;2024-02-21T06:35:30;13.20;;;5.67;;
10059;SDS011;5069;49.306;8.636;2024-02-21T06:38:32;11.23;;;5.17;;
10059;SDS011;5069;49.306;8.636;2024-02-21T06:41:35;10.57;;;5.70;;
10059;SDS011;5069;49.306;8.636;2024-02-21T06:44:36;9.37;;;5.97;;
10059;SDS011;5069;49.306;8.636;2024-02-21T06:47:41;11.63;;;5.80;;
10059;SDS011;5069;49.306;8.636;2024-02-21T06:50:43;13.23;;;6.47;;
10059;SDS011;5069;49.306;8.636;2024-02-21T06:53:45;10.87;;;6.57;;
10059;SDS011;5069;49.306;8.636;2024-02-21T06:56:46;13.07;;;6.63;;
10059;SDS011;5069;49.306;8.636;2024-02-21T06:59:48;10.87;;;5.70;;
10059;SDS011;5069;49.306;8.636;2024-02-21T07:02:49;12.73;;;6.80;;
10059;SDS011;5069;49.306;8.636;2024-02-21T07:05:51;10.23;;;5.87;;
10059;SDS011;5069;49.306;8.636;2024-02-21T07:08:52;13.83;;;6.50;;
10059;SDS011;5069;49.306;8.636;2024-02-21T07:11:54;12.73;;;6.23;;
10059;SDS011;5069;49.306;8.636;2024-02-21T07:14:56;10.93;;;5.77;;
10059;SDS011;5069;49.306;8.636;2024-02-21T07:17:57;9.33;;;5.47;;
10059;SDS011;5069;49.306;8.636;2024-02-21T07:20:59;9.87;;;5.47;;
10059;SDS011;5069;49.306;8.636;2024-02-21T07:24:00;10.60;;;5.47;;
10059;SDS011;5069;49.306;8.636;2024-02-21T07:27:02;10.53;;;5.67;;
10059;SDS011;5069;49.306;8.636;2024-02-21T07:30:06;7.53;;;5.07;;
10059;SDS011;5069;49.306;8.636;2024-02-21T07:33:07;10.97;;;5.43;;
10059;SDS011;5069;49.306;8.636;2024-02-21T07:36:10;8.93;;;5.20;;
10059;SDS011;5069;49.306;8.636;2024-02-21T07:39:12;12.50;;;4.90;;
10059;SDS011;5069;49.306;8.636;2024-02-21T07:42:14;11.70;;;4.43;;
10059;SDS011;5069;49.306;8.636;2024-02-21T07:45:16;8.60;;;3.97;;
10059;SDS011;5069;49.306;8.636;2024-02-21T07:48:20;9.10;;;4.43;;
10059;SDS011;5069;49.306;8.636;2024-02-21T07:51:27;10.03;;;3.83;;
10059;SDS011;5069;49.306;8.636;2024-02-21T07:54:29;10.83;;;3.80;;
10059;SDS011;5069;49.306;8.636;2024-02-21T07:57:30;10.80;;;4.40;;
10059;SDS011;5069;49.306;8.636;2024-02-21T08:00:32;9.33;;;4.07;;
10059;SDS011;5069;49.306;8.636;2024-02-21T08:03:33;11.23;;;4.07;;
10059;SDS011;5069;49.306;8.636;2024-02-21T08:06:35;10.27;;;4.13;;
10059;SDS011;5069;49.306;8.636;2024-02-21T08:09:39;11.80;;;4.43;;
10059;SDS011;5069;49.306;8.636;2024-02-21T08:12:41;9.50;;;4.37;;
10059;SDS011;5069;49.306;8.636;2024-02-21T08:15:43;11.10;;;4.53;;
10059;SDS011;5069;49.306;8.636;2024-02-21T08:18:44;11.73;;;4.70;;
10059;SDS011;5069;49.306;8.636;2024-02-21T08:21:46;10.47;;;4.03;;
10059;SDS011;5069;49.306;8.636;2024-02-21T08:24:50;11.43;;;4.43;;
10059;SDS011;5069;49.306;8.636;2024-02-21T08:27:55;13.57;;;4.73;;
10059;SDS011;5069;49.306;8.636;2024-02-21T08:31:00;10.93;;;4.13;;
10059;SDS011;5069;49.306;8.636;2024-02-21T08:34:01;11.17;;;4.00;;
10059;SDS011;5069;49.306;8.636;2024-02-21T08:37:06;10.83;;;3.97;;
10059;SDS011;5069;49.306;8.636;2024-02-21T08:40:07;10.43;;;4.13;;
10059;SDS011;5069;49.306;8.636;2024-02-21T08:43:10;10.43;;;3.90;;
10059;SDS011;5069;49.306;8.636;2024-02-21T08:46:11;9.53;;;4.23;;
10059;SDS011;5069;49.306;8.636;2024-02-21T08:49:13;8.63;;;3.80;;
10059;SDS011;5069;49.306;8.636;2024-02-21T08:52:15;9.27;;;3.70;;
10059;SDS011;5069;49.306;8.636;2024-02-21T08:55:16;10.13;;;4.10;;
10059;SDS011;5069;49.306;8.636;2024-02-21T08:58:18;8.70;;;3.60;;
10059;SDS011;5069;49.306;8.636;2024-02-21T09:01:22;11.17;;;4.20;;
10059;SDS011;5069;49.306;8.636;2024-02-21T09:04:24;10.83;;;4.03;;
10059;SDS011;5069;49.306;8.636;2024-02-21T09:07:26;6.57;;;3.50;;
10059;SDS011;5069;49.306;8.636;2024-02-21T09:10:27;9.27;;;4.17;;
10059;SDS011;5069;49.306;8.636;2024-02-21T09:13:29;8.97;;;3.60;;
10059;SDS011;5069;49.306;8.636;2024-02-21T09:16:31;9.63;;;4.60;;
10059;SDS011;5069;49.306;8.636;2024-02-21T09:19:35;8.03;;;3.80;;
10059;SDS011;5069;49.306;8.636;2024-02-21T09:22:36;10.53;;;3.80;;
10059;SDS011;5069;49.306;8.636;2024-02-21T09:25:40;9.30;;;3.93;;
10059;SDS011;5069;49.306;8.636;2024-02-21T09:28:42;8.57;;;3.70;;
10059;SDS011;5069;49.306;8.636;2024-02-21T09:31:46;8.10;;;3.20;;
10059;SDS011;5069;49.306;8.636;2024-02-21T09:34:49;10.63;;;3.80;;
10059;SDS011;5069;49.306;8.636;2024-02-21T09:37:50;8.97;;;3.63;;
10059;SDS011;5069;49.306;8.636;2024-02-21T09:41:35;12.33;;;4.20;;
10059;SDS011;5069;49.306;8.636;2024-02-21T09:44:28;10.13;;;3.50;;
10059;SDS011;5069;49.306;8.636;2024-02-21T09:47:40;10.80;;;3.83;;
10059;SDS011;5069;49.306;8.636;2024-02-21T09:50:51;7.73;;;3.63;;
10059;SDS011;5069;49.306;8.636;2024-02-21T09:53:56;11.37;;;3.80;;
10059;SDS011;5069;49.306;8.636;2024-02-21T09:57:11;9.47;;;3.50;;
10059;SDS011;5069;49.306;8.636;2024-02-21T10:00:14;8.17;;;3.13;;
10059;SDS011;5069;49.306;8.636;2024-02-21T10:03:22;9.30;;;3.57;;
10059;SDS011;5069;49.306;8.636;2024-02-21T10:06:24;12.67;;;3.57;;
10059;SDS011;5069;49.306;8.636;2024-02-21T10:09:26;10.37;;;3.30;;
10059;SDS011;5069;49.306;8.636;2024-02-21T10:12:32;6.70;;;3.07;;
10059;SDS011;5069;49.306;8.636;2024-02-21T10:15:33;6.90;;;2.93;;
10059;SDS011;5069;49.306;8.636;2024-02-21T10:18:35;8.90;;;3.30;;
10059;SDS011;5069;49.306;8.636;2024-02-21T10:21:37;10.90;;;3.30;;
10059;SDS011;5069;49.306;8.636;2024-02-21T10:24:38;5.90;;;2.67;;
10059;SDS011;5069;49.306;8.636;2024-02-21T10:27:42;8.93;;;2.73;;
10059;SDS011;5069;49.306;8.636;2024-02-21T10:30:50;7.03;;;2.80;;
10059;SDS011;5069;49.306;8.636;2024-02-21T10:33:53;7.47;;;2.47;;
10059;SDS011;5069;49.306;8.636;2024-02-21T10:37:00;8.13;;;2.60;;
10059;SDS011;5069;49.306;8.636;2024-02-21T10:40:06;8.40;;;2.50;;
10059;SDS011;5069;49.306;8.636;2024-02-21T10:43:09;7.70;;;2.50;;
10059;SDS011;5069;49.306;8.636;2024-02-21T10:46:13;9.03;;;2.77;;
10059;SDS011;5069;49.306;8.636;2024-02-21T10:49:23;9.53;;;3.10;;
10059;SDS011;5069;49.306;8.636;2024-02-21T10:55:37;6.00;;;2.60;;
10059;SDS011;5069;49.306;8.636;2024-02-21T10:58:42;8.43;;;2.47;;
10059;SDS011;5069;49.306;8.636;2024-02-21T11:01:45;7.47;;;2.80;;
10059;SDS011;5069;49.306;8.636;2024-02-21T11:04:47;9.07;;;2.73;;
10059;SDS011;5069;49.306;8.636;2024-02-21T11:07:51;7.80;;;2.53;;
10059;SDS011;5069;49.306;8.636;2024-02-21T11:10:56;9.43;;;2.80;;
10059;SDS011;5069;49.306;8.636;2024-02-21T11:14:05;7.23;;;2.50;;
10059;SDS011;5069;49.306;8.636;2024-02-21T11:17:17;8.00;;;2.50;;
10059;SDS011;5069;49.306;8.636;2024-02-21T11:20:19;9.10;;;3.00;;
10059;SDS011;5069;49.306;8.636;2024-02-21T11:23:25;7.53;;;2.43;;
10059;SDS011;5069;49.306;8.636;2024-02-21T11:26:28;8.27;;;2.97;;
10059;SDS011;5069;49.306;8.636;2024-02-21T11:29:30;9.00;;;3.00;;
10059;SDS011;5069;49.306;8.636;2024-02-21T11:32:32;7.13;;;2.60;;
10059;SDS011;5069;49.306;8.636;2024-02-21T11:35:34;8.87;;;3.00;;
10059;SDS011;5069;49.306;8.636;2024-02-21T11:38:36;6.93;;;2.57;;
10059;SDS011;5069;49.306;8.636;2024-02-21T11:41:38;7.17;;;2.20;;
10059;SDS011;5069;49.306;8.636;2024-02-21T11:44:39;5.83;;;2.50;;
10059;SDS011;5069;49.306;8.636;2024-02-21T11:47:43;6.47;;;2.53;;
10059;SDS011;5069;49.306;8.636;2024-02-21T11:50:52;7.20;;;2.10;;
10059;SDS011;5069;49.306;8.636;2024-02-21T11:53:54;5.23;;;2.20;;
10059;SDS011;5069;49.306;8.636;2024-02-21T11:57:02;6.20;;;2.33;;
10059;SDS011;5069;49.306;8.636;2024-02-21T12:00:11;5.80;;;2.17;;
10059;SDS011;5069;49.306;8.636;2024-02-21T12:03:15;8.07;;;2.10;;
10059;SDS011;5069;49.306;8.636;2024-02-21T12:06:16;6.03;;;2.20;;
10059;SDS011;5069;49.306;8.636;2024-02-21T12:09:24;7.13;;;2.57;;
10059;SDS011;5069;49.306;8.636;2024-02-21T12:12:26;6.03;;;2.57;;
10059;SDS011;5069;49.306;8.636;2024-02-21T12:15:30;7.37;;;2.73;;
10059;SDS011;5069;49.306;8.636;2024-02-21T12:18:32;5.43;;;2.30;;
10059;SDS011;5069;49.306;8.636;2024-02-21T12:21:34;8.53;;;2.33;;
10059;SDS011;5069;49.306;8.636;2024-02-21T12:24:38;7.30;;;1.97;;
10059;SDS011;5069;49.306;8.636;2024-02-21T12:27:41;8.53;;;2.50;;
10059;SDS011;5069;49.306;8.636;2024-02-21T12:30:43;5.87;;;2.07;;
10059;SDS011;5069;49.306;8.636;2024-02-21T12:33:44;11.13;;;2.23;;
10059;SDS011;5069;49.306;8.636;2024-02-21T12:36:46;4.77;;;2.10;;
10059;SDS011;5069;49.306;8.636;2024-02-21T12:39:48;8.53;;;2.00;;
10059;SDS011;5069;49.306;8.636;2024-02-21T12:42:50;5.30;;;1.90;;
10059;SDS011;5069;49.306;8.636;2024-02-21T12:45:52;7.80;;;2.40;;
10059;SDS011;5069;49.306;8.636;2024-02-21T12:48:54;5.60;;;2.10;;
10059;SDS011;5069;49.306;8.636;2024-02-21T12:51:55;4.93;;;1.80;;
10059;SDS011;5069;49.306;8.636;2024-02-21T12:54:57;6.63;;;2.17;;
10059;SDS011;5069;49.306;8.636;2024-02-21T12:58:02;6.10;;;2.33;;
10059;SDS011;5069;49.306;8.636;2024-02-21T13:01:05;5.07;;;2.10;;
10059;SDS011;5069;49.306;8.636;2024-02-21T13:04:06;6.57;;;2.40;;
10059;SDS011;5069;49.306;8.636;2024-02-21T13:07:08;7.27;;;2.40;;
10059;SDS011;5069;49.306;8.636;2024-02-21T13:10:10;5.67;;;2.00;;
10059;SDS011;5069;49.306;8.636;2024-02-21T13:13:11;5.13;;;2.13;;
10059;SDS011;5069;49.306;8.636;2024-02-21T13:16:13;7.73;;;2.47;;
10059;SDS011;5069;49.306;8.636;2024-02-21T13:19:15;6.33;;;2.07;;
10059;SDS011;5069;49.306;8.636;2024-02-21T13:22:19;8.53;;;2.17;;
10059;SDS011;5069;49.306;8.636;2024-02-21T13:25:23;8.37;;;2.00;;
10059;SDS011;5069;49.306;8.636;2024-02-21T13:28:25;8.53;;;2.53;;
10059;SDS011;5069;49.306;8.636;2024-02-21T13:31:26;11.27;;;2.10;;
10059;SDS011;5069;49.306;8.636;2024-02-21T13:34:28;7.53;;;2.00;;
10059;SDS011;5069;49.306;8.636;2024-02-21T13:37:30;5.83;;;1.97;;
10059;SDS011;5069;49.306;8.636;2024-02-21T13:40:32;5.70;;;2.00;;
10059;SDS011;5069;49.306;8.636;2024-02-21T13:43:34;7.43;;;2.07;;
10059;SDS011;5069;49.306;8.636;2024-02-21T13:46:35;5.43;;;2.00;;
10059;SDS011;5069;49.306;8.636;2024-02-21T13:49:37;7.07;;;2.00;;
10059;SDS011;5069;49.306;8.636;2024-02-21T13:52:38;7.53;;;2.00;;
10059;SDS011;5069;49.306;8.636;2024-02-21T13:55:40;7.03;;;2.10;;
10059;SDS011;5069;49.306;8.636;2024-02-21T13:58:42;8.37;;;2.10;;
10059;SDS011;5069;49.306;8.636;2024-02-21T14:01:43;5.33;;;2.10;;
10059;SDS011;5069;49.306;8.636;2024-02-21T14:04:45;7.63;;;2.33;;
10059;SDS011;5069;49.306;8.636;2024-02-21T14:07:47;4.10;;;1.83;;
10059;SDS011;5069;49.306;8.636;2024-02-21T14:10:48;6.77;;;2.23;;
10059;SDS011;5069;49.306;8.636;2024-02-21T14:13:50;5.67;;;1.80;;
10059;SDS011;5069;49.306;8.636;2024-02-21T14:16:52;8.30;;;2.20;;
10059;SDS011;5069;49.306;8.636;2024-02-21T14:19:53;6.13;;;1.97;;
10059;SDS011;5069;49.306;8.636;2024-02-21T14:22:55;7.33;;;1.87;;
10059;SDS011;5069;49.306;8.636;2024-02-21T14:25:56;6.63;;;2.23;;
10059;SDS011;5069;49.306;8.636;2024-02-21T14:28:58;6.80;;;2.10;;
10059;SDS011;5069;49.306;8.636;2024-02-21T14:32:00;6.07;;;1.93;;
10059;SDS011;5069;49.306;8.636;2024-02-21T14:35:02;8.67;;;2.20;;
10059;SDS011;5069;49.306;8.636;2024-02-21T14:38:06;4.33;;;1.80;;
10059;SDS011;5069;49.306;8.636;2024-02-21T14:41:09;6.23;;;1.97;;
10059;SDS011;5069;49.306;8.636;2024-02-21T14:44:13;6.10;;;2.23;;
10059;SDS011;5069;49.306;8.636;2024-02-21T14:47:15;6.13;;;2.40;;
10059;SDS011;5069;49.306;8.636;2024-02-21T14:50:17;6.93;;;2.10;;
10059;SDS011;5069;49.306;8.636;2024-02-21T14:53:18;8.30;;;2.40;;
10059;SDS011;5069;49.306;8.636;2024-02-21T14:56:20;5.20;;;1.93;;
10059;SDS011;5069;49.306;8.636;2024-02-21T14:59:21;4.70;;;2.03;;
10059;SDS011;5069;49.306;8.636;2024-02-21T15:02:34;9.83;;;2.23;;
10059;SDS011;5069;49.306;8.636;2024-02-21T15:05:36;5.63;;;1.90;;
10059;SDS011;5069;49.306;8.636;2024-02-21T15:08:38;9.30;;;2.10;;
10059;SDS011;5069;49.306;8.636;2024-02-21T15:11:40;7.20;;;2.20;;
10059;SDS011;5069;49.306;8.636;2024-02-21T15:14:41;6.37;;;2.10;;
10059;SDS011;5069;49.306;8.636;2024-02-21T15:17:44;4.77;;;2.00;;
10059;SDS011;5069;49.306;8.636;2024-02-21T15:20:45;5.57;;;2.00;;
10059;SDS011;5069;49.306;8.636;2024-02-21T15:23:47;4.27;;;1.73;;
10059;SDS011;5069;49.306;8.636;2024-02-21T15:26:49;7.00;;;2.00;;
10059;SDS011;5069;49.306;8.636;2024-02-21T15:29:50;6.60;;;1.77;;
10059;SDS011;5069;49.306;8.636;2024-02-21T15:32:52;5.60;;;1.87;;
10059;SDS011;5069;49.306;8.636;2024-02-21T15:35:56;6.50;;;2.07;;
10059;SDS011;5069;49.306;8.636;2024-02-21T15:38:58;7.30;;;2.20;;
10059;SDS011;5069;49.306;8.636;2024-02-21T15:42:00;7.27;;;2.80;;
10059;SDS011;5069;49.306;8.636;2024-02-21T15:45:02;4.33;;;1.97;;
10059;SDS011;5069;49.306;8.636;2024-02-21T15:48:06;6.83;;;2.07;;
10059;SDS011;5069;49.306;8.636;2024-02-21T15:51:08;4.53;;;2.50;;
10059;SDS011;5069;49.306;8.636;2024-02-21T15:54:10;6.20;;;2.40;;
10059;SDS011;5069;49.306;8.636;2024-02-21T15:57:12;8.63;;;2.40;;
10059;SDS011;5069;49.306;8.636;2024-02-21T16:00:13;6.63;;;2.27;;
10059;SDS011;5069;49.306;8.636;2024-02-21T16:03:15;4.40;;;2.10;;
10059;SDS011;5069;49.306;8.636;2024-02-21T16:06:16;5.53;;;1.90;;
10059;SDS011;5069;49.306;8.636;2024-02-21T16:09:18;10.60;;;2.50;;
10059;SDS011;5069;49.306;8.636;2024-02-21T16:12:20;5.83;;;2.43;;
10059;SDS011;5069;49.306;8.636;2024-02-21T16:15:24;5.73;;;2.20;;
10059;SDS011;5069;49.306;8.636;2024-02-21T16:18:26;7.60;;;2.40;;
10059;SDS011;5069;49.306;8.636;2024-02-21T16:21:28;5.97;;;2.57;;
10059;SDS011;5069;49.306;8.636;2024-02-21T16:24:30;6.37;;;3.07;;
10059;SDS011;5069;49.306;8.636;2024-02-21T16:27:31;8.97;;;2.90;;
10059;SDS011;5069;49.306;8.636;2024-02-21T16:30:34;4.73;;;2.70;;
10059;SDS011;5069;49.306;8.636;2024-02-21T16:33:36;4.93;;;2.57;;
10059;SDS011;5069;49.306;8.636;2024-02-21T16:36:38;6.50;;;2.57;;
10059;SDS011;5069;49.306;8.636;2024-02-21T16:39:40;7.13;;;2.90;;
10059;SDS011;5069;49.306;8.636;2024-02-21T16:42:41;5.30;;;2.17;;
10059;SDS011;5069;49.306;8.636;2024-02-21T16:45:44;7.57;;;2.90;;
10059;SDS011;5069;49.306;8.636;2024-02-21T16:48:45;5.83;;;3.27;;
10059;SDS011;5069;49.306;8.636;2024-02-21T16:51:47;7.17;;;3.90;;
10059;SDS011;5069;49.306;8.636;2024-02-21T16:54:49;10.30;;;3.50;;
10059;SDS011;5069;49.306;8.636;2024-02-21T16:57:51;8.87;;;2.90;;
10059;SDS011;5069;49.306;8.636;2024-02-21T17:00:52;5.97;;;3.73;;
10059;SDS011;5069;49.306;8.636;2024-02-21T17:03:55;8.07;;;3.90;;
10059;SDS011;5069;49.306;8.636;2024-02-21T17:06:56;6.70;;;2.43;;
10059;SDS011;5069;49.306;8.636;2024-02-21T17:09:58;4.97;;;3.17;;
10059;SDS011;5069;49.306;8.636;2024-02-21T17:13:00;9.77;;;3.40;;
10059;SDS011;5069;49.306;8.636;2024-02-21T17:16:02;8.07;;;4.20;;
10059;SDS011;5069;49.306;8.636;2024-02-21T17:19:05;8.60;;;4.00;;
10059;SDS011;5069;49.306;8.636;2024-02-21T17:22:07;8.80;;;4.80;;
10059;SDS011;5069;49.306;8.636;2024-02-21T17:25:08;10.23;;;4.40;;
10059;SDS011;5069;49.306;8.636;2024-02-21T17:28:11;11.63;;;4.27;;
10059;SDS011;5069;49.306;8.636;2024-02-21T17:31:13;8.70;;;3.47;;
10059;SDS011;5069;49.306;8.636;2024-02-21T17:34:14;7.13;;;3.30;;
10059;SDS011;5069;49.306;8.636;2024-02-21T17:37:16;4.00;;;2.50;;
10059;SDS011;5069;49.306;8.636;2024-02-21T17:40:17;9.67;;;3.43;;
10059;SDS011;5069;49.306;8.636;2024-02-21T17:43:19;5.80;;;3.00;;
10059;SDS011;5069;49.306;8.636;2024-02-21T17:46:22;6.83;;;3.00;;
10059;SDS011;5069;49.306;8.636;2024-02-21T17:49:24;7.53;;;2.93;;
10059;SDS011;5069;49.306;8.636;2024-02-21T17:52:26;9.37;;;3.57;;
10059;SDS011;5069;49.306;8.636;2024-02-21T17:55:31;6.27;;;3.23;;
10059;SDS011;5069;49.306;8.636;2024-02-21T17:58:33;5.80;;;3.70;;
10059;SDS011;5069;49.306;8.636;2024-02-21T18:01:36;11.40;;;4.37;;
10059;SDS011;5069;49.306;8.636;2024-02-21T18:04:37;9.07;;;3.90;;
10059;SDS011;5069;49.306;8.636;2024-02-21T18:07:40;10.83;;;4.37;;
10059;SDS011;5069;49.306;8.636;2024-02-21T18:10:42;13.83;;;7.37;;
10059;SDS011;5069;49.306;8.636;2024-02-21T18:13:44;14.30;;;7.17;;
10059;SDS011;5069;49.306;8.636;2024-02-21T18:16:47;9.87;;;6.13;;
10059;SDS011;5069;49.306;8.636;2024-02-21T18:19:49;10.47;;;5.23;;
10059;SDS011;5069;49.306;8.636;2024-02-21T18:22:50;8.77;;;5.20;;
10059;SDS011;5069;49.306;8.636;2024-02-21T18:25:55;12.90;;;5.93;;
10059;SDS011;5069;49.306;8.636;2024-02-21T18:28:56;11.70;;;6.00;;
10059;SDS011;5069;49.306;8.636;2024-02-21T18:31:58;11.30;;;5.63;;
10059;SDS011;5069;49.306;8.636;2024-02-21T18:35:01;10.60;;;5.37;;